Time;durP1;ratioP1;P1;durP2;ratioP2;P2;SDS_P1;SDS_P2;PMS_P1;PMS_P2;Temp;Humidity;BMP_temperature;BMP_pressure;BME280_temperature;BME280_humidity;BME280_pressure;Samples;Min_cycle;Max_cycle;Signal;HPM_P1;HPM_P2
2021/11/03 00:01:20;;;;;;;7.25;2.80;;;;;;;;;;5095110;28;20016;-75
2021/11/03 00:03:47;;;;;;;6.10;2.35;;;;;;;;;;5095145;28;20099;-71
2021/11/03 00:06:20;;;;;;;3.45;1.67;;;;;;;;;;5095327;28;20020;-73
2021/11/03 00:08:47;;;;;;;5.15;2.10;;;;;;;;;;5076758;28;20495;-75
2021/11/03 00:11:13;;;;;;;4.68;2.40;;;;;;;;;;5094847;28;20020;-71
2021/11/03 00:13:40;;;;;;;5.25;2.33;;;;;;;;;;5094673;28;20055;-70
2021/11/03 00:16:06;;;;;;;5.22;2.38;;;;;;;;;;5094715;28;20016;-71
2021/11/03 00:18:32;;;;;;;4.25;2.15;;;;;;;;;;5076552;28;20115;-71
2021/11/03 00:21:00;;;;;;;3.70;2.13;;;;;;;;;;5076688;28;20066;-71
2021/11/03 00:23:26;;;;;;;3.63;2.13;;;;;;;;;;5094751;28;20099;-72
2021/11/03 00:25:52;;;;;;;4.82;1.90;;;;;;;;;;5114914;28;20027;-71
2021/11/03 00:28:19;;;;;;;4.45;2.10;;;;;;;;;;5114927;28;20364;-73
2021/11/03 00:30:46;;;;;;;4.88;2.45;;;;;;;;;;5096412;28;20505;-74
2021/11/03 00:33:13;;;;;;;5.63;2.60;;;;;;;;;;5113605;28;20035;-72
2021/11/03 00:35:39;;;;;;;4.28;1.95;;;;;;;;;;5114785;28;20015;-72
2021/11/03 00:38:05;;;;;;;3.88;2.15;;;;;;;;;;5114558;28;20038;-72
2021/11/03 00:40:32;;;;;;;6.05;2.45;;;;;;;;;;5113743;28;20024;-74
2021/11/03 00:42:58;;;;;;;3.40;2.10;;;;;;;;;;5114689;28;20070;-74
2021/11/03 00:45:25;;;;;;;3.67;1.92;;;;;;;;;;5096359;28;20024;-71
2021/11/03 00:47:51;;;;;;;4.15;2.35;;;;;;;;;;5114857;28;20051;-72
2021/11/03 00:50:17;;;;;;;4.35;2.15;;;;;;;;;;5096324;28;20023;-73
2021/11/03 00:52:44;;;;;;;7.70;2.00;;;;;;;;;;5096208;28;20039;-71
2021/11/03 00:55:10;;;;;;;4.38;1.85;;;;;;;;;;5114409;28;20028;-73
2021/11/03 00:57:36;;;;;;;6.10;2.05;;;;;;;;;;5113260;28;20098;-73
2021/11/03 01:00:04;;;;;;;5.28;2.30;;;;;;;;;;5114195;28;20098;-75
2021/11/03 01:02:30;;;;;;;8.95;2.00;;;;;;;;;;5096864;27;20466;-72
2021/11/03 01:04:56;;;;;;;4.97;2.65;;;;;;;;;;5125579;27;20034;-72
2021/11/03 01:07:22;;;;;;;5.00;2.17;;;;;;;;;;5095908;28;20123;-70
2021/11/03 01:09:48;;;;;;;4.60;2.20;;;;;;;;;;5126097;27;20470;-75
2021/11/03 01:12:14;;;;;;;4.88;2.50;;;;;;;;;;5116001;27;20035;-72
2021/11/03 01:14:41;;;;;;;4.65;2.03;;;;;;;;;;5123389;27;20020;-71
2021/11/03 01:17:07;;;;;;;4.18;2.08;;;;;;;;;;5093534;28;20396;-71
2021/11/03 01:19:33;;;;;;;4.22;2.13;;;;;;;;;;5093466;28;20073;-71
2021/11/03 01:22:00;;;;;;;5.68;2.20;;;;;;;;;;5117377;27;20066;-71
2021/11/03 01:24:26;;;;;;;5.53;2.17;;;;;;;;;;5108242;27;20040;-73
2021/11/03 01:26:52;;;;;;;3.15;1.90;;;;;;;;;;5093318;28;20040;-71
2021/11/03 01:29:19;;;;;;;5.35;2.17;;;;;;;;;;5092880;28;20074;-75
2021/11/03 01:31:45;;;;;;;3.63;2.00;;;;;;;;;;5093952;28;20431;-74
2021/11/03 01:34:11;;;;;;;3.88;1.90;;;;;;;;;;5093326;28;20403;-72
2021/11/03 01:36:37;;;;;;;4.18;2.00;;;;;;;;;;5093195;28;20084;-71
2021/11/03 01:39:05;;;;;;;4.45;2.00;;;;;;;;;;5092984;28;20051;-74
2021/11/03 01:41:31;;;;;;;3.90;1.92;;;;;;;;;;5093090;28;20499;-73
2021/11/03 01:44:04;;;;;;;3.65;2.13;;;;;;;;;;5093045;28;20055;-75
2021/11/03 01:46:32;;;;;;;4.22;2.28;;;;;;;;;;5074884;28;20044;-70
2021/11/03 01:49:18;;;;;;;4.57;2.15;;;;;;;;;;5093595;28;20024;-68
2021/11/03 01:51:55;;;;;;;4.07;2.40;;;;;;;;;;5074425;28;20402;-71
2021/11/03 01:54:23;;;;;;;8.35;2.20;;;;;;;;;;5092891;28;20016;-70
2021/11/03 01:56:49;;;;;;;4.90;2.10;;;;;;;;;;5074768;28;20114;-69
2021/11/03 01:59:19;;;;;;;6.45;2.15;;;;;;;;;;5129463;27;20015;-73
2021/11/03 02:01:45;;;;;;;5.07;2.08;;;;;;;;;;5115687;27;20019;-71
2021/11/03 02:04:11;;;;;;;6.10;2.25;;;;;;;;;;5133671;27;20106;-71
2021/11/03 02:06:38;;;;;;;4.35;2.20;;;;;;;;;;5088097;28;20016;-72
2021/11/03 02:09:05;;;;;;;5.72;2.30;;;;;;;;;;5092619;28;20028;-71
2021/11/03 02:11:31;;;;;;;4.28;2.22;;;;;;;;;;5092511;28;20028;-72
2021/11/03 02:13:58;;;;;;;5.88;2.15;;;;;;;;;;5092688;28;20099;-71
2021/11/03 02:16:24;;;;;;;5.40;2.58;;;;;;;;;;5092578;28;20016;-71
2021/11/03 02:18:51;;;;;;;4.65;2.17;;;;;;;;;;5074444;28;20016;-72
2021/11/03 02:21:19;;;;;;;4.85;2.35;;;;;;;;;;5092568;28;20035;-71
2021/11/03 02:23:48;;;;;;;6.10;2.72;;;;;;;;;;5092953;28;20134;-72
2021/11/03 02:26:22;;;;;;;5.15;2.30;;;;;;;;;;5092618;28;20074;-72
2021/11/03 02:28:49;;;;;;;13.50;2.40;;;;;;;;;;5074353;28;20070;-72
2021/11/03 02:31:28;;;;;;;5.22;2.40;;;;;;;;;;5092200;28;20044;-71
2021/11/03 02:33:54;;;;;;;5.28;2.67;;;;;;;;;;5092325;28;20046;-72
2021/11/03 02:36:20;;;;;;;5.70;2.60;;;;;;;;;;5074154;28;20406;-71
2021/11/03 02:38:46;;;;;;;4.90;2.65;;;;;;;;;;5092322;27;20027;-71
2021/11/03 02:41:12;;;;;;;4.15;2.30;;;;;;;;;;5092458;28;20390;-72
2021/11/03 02:43:54;;;;;;;4.53;2.58;;;;;;;;;;5091792;28;20028;-72
2021/11/03 02:46:20;;;;;;;4.75;2.20;;;;;;;;;;5074303;28;20406;-71
2021/11/03 02:48:47;;;;;;;4.75;2.45;;;;;;;;;;5092386;28;20024;-71
2021/11/03 02:51:15;;;;;;;4.00;2.20;;;;;;;;;;5091939;28;20048;-71
2021/11/03 02:53:46;;;;;;;3.80;2.10;;;;;;;;;;5091757;28;20569;-72
2021/11/03 02:56:19;;;;;;;4.18;2.50;;;;;;;;;;5092063;28;20051;-71
2021/11/03 02:58:46;;;;;;;5.65;2.58;;;;;;;;;;5091899;28;20055;-71
2021/11/03 03:01:15;;;;;;;4.70;2.28;;;;;;;;;;5091880;28;20629;-70
2021/11/03 03:03:44;;;;;;;3.90;2.35;;;;;;;;;;5091944;28;20050;-70
2021/11/03 03:06:13;;;;;;;5.72;2.60;;;;;;;;;;5091978;28;20474;-71
2021/11/03 03:08:39;;;;;;;6.05;2.70;;;;;;;;;;5073946;28;20024;-69
2021/11/03 03:11:05;;;;;;;4.75;2.30;;;;;;;;;;5074171;28;20032;-71
2021/11/03 03:13:32;;;;;;;4.57;2.53;;;;;;;;;;5092196;28;20161;-71
2021/11/03 03:15:58;;;;;;;5.45;2.92;;;;;;;;;;5091958;28;20081;-71
2021/11/03 03:18:25;;;;;;;5.20;2.75;;;;;;;;;;5091885;28;20479;-71
2021/11/03 03:20:51;;;;;;;5.00;2.53;;;;;;;;;;5091875;28;20110;-71
2021/11/03 03:23:17;;;;;;;4.97;3.03;;;;;;;;;;5091821;28;20028;-71
2021/11/03 03:25:44;;;;;;;5.90;3.00;;;;;;;;;;5082178;28;20106;-71
2021/11/03 03:28:14;;;;;;;6.07;3.10;;;;;;;;;;5093990;28;20023;-71
2021/11/03 03:30:40;;;;;;;5.55;3.00;;;;;;;;;;5111259;28;20039;-71
2021/11/03 03:33:07;;;;;;;5.45;3.05;;;;;;;;;;5112019;28;20027;-71
2021/11/03 03:35:33;;;;;;;7.55;3.15;;;;;;;;;;5111974;28;20066;-72
2021/11/03 03:37:59;;;;;;;5.18;2.92;;;;;;;;;;5112081;28;20025;-70
2021/11/03 03:40:25;;;;;;;5.30;3.30;;;;;;;;;;5112003;28;20209;-71
2021/11/03 03:42:51;;;;;;;5.15;3.00;;;;;;;;;;5111969;28;20090;-70
2021/11/03 03:45:17;;;;;;;6.72;3.60;;;;;;;;;;5093540;28;20095;-70
2021/11/03 03:47:43;;;;;;;5.60;3.22;;;;;;;;;;5111121;28;20027;-71
2021/11/03 03:50:10;;;;;;;8.10;3.58;;;;;;;;;;5111933;28;20043;-71
2021/11/03 03:52:36;;;;;;;8.88;3.40;;;;;;;;;;5111963;28;20120;-71
2021/11/03 03:55:04;;;;;;;5.45;3.28;;;;;;;;;;5111771;28;20031;-70
2021/11/03 03:57:30;;;;;;;5.30;3.33;;;;;;;;;;5089961;28;20062;-71
2021/11/03 03:59:56;;;;;;;6.15;3.10;;;;;;;;;;5091394;28;20020;-71
2021/11/03 04:02:22;;;;;;;6.80;3.35;;;;;;;;;;5091415;28;20028;-70
2021/11/03 04:04:48;;;;;;;5.88;3.40;;;;;;;;;;5092020;28;20043;-69
2021/11/03 04:07:14;;;;;;;6.45;3.55;;;;;;;;;;5092423;28;20080;-71
2021/11/03 04:09:40;;;;;;;5.78;3.40;;;;;;;;;;5095006;28;20024;-70
2021/11/03 04:12:07;;;;;;;6.65;3.75;;;;;;;;;;5094802;28;20032;-71
2021/11/03 04:14:33;;;;;;;8.63;3.40;;;;;;;;;;5094994;28;20020;-71
2021/11/03 04:16:59;;;;;;;6.88;3.80;;;;;;;;;;5094939;28;20019;-70
2021/11/03 04:19:25;;;;;;;7.05;3.80;;;;;;;;;;5094771;28;20547;-71
2021/11/03 04:21:52;;;;;;;7.82;3.75;;;;;;;;;;5095262;28;20055;-72
2021/11/03 04:24:18;;;;;;;6.32;3.30;;;;;;;;;;5076382;28;20028;-72
2021/11/03 04:26:46;;;;;;;5.85;3.60;;;;;;;;;;5097245;28;20031;-72
2021/11/03 04:29:12;;;;;;;6.30;3.60;;;;;;;;;;5096974;28;20093;-72
2021/11/03 04:31:39;;;;;;;7.22;3.80;;;;;;;;;;5114553;28;20060;-72
2021/11/03 04:34:05;;;;;;;5.60;3.33;;;;;;;;;;5114865;28;20024;-72
2021/11/03 04:36:31;;;;;;;5.40;3.40;;;;;;;;;;5114922;28;20020;-71
2021/11/03 04:38:58;;;;;;;5.03;3.03;;;;;;;;;;5113928;28;20030;-70
2021/11/03 04:41:25;;;;;;;6.95;3.72;;;;;;;;;;5096354;28;20020;-69
2021/11/03 04:43:51;;;;;;;6.20;3.22;;;;;;;;;;5096588;28;20031;-71
2021/11/03 04:46:17;;;;;;;5.25;3.10;;;;;;;;;;5114846;28;20031;-70
2021/11/03 04:48:43;;;;;;;4.90;2.90;;;;;;;;;;5114799;28;20024;-68
2021/11/03 04:51:09;;;;;;;5.07;3.22;;;;;;;;;;5114534;28;20020;-70
2021/11/03 04:53:36;;;;;;;5.35;3.08;;;;;;;;;;5095917;28;20035;-70
2021/11/03 04:56:03;;;;;;;6.90;3.63;;;;;;;;;;5095138;28;20031;-71
2021/11/03 04:58:30;;;;;;;5.60;3.50;;;;;;;;;;5102305;28;20081;-71
2021/11/03 05:00:56;;;;;;;5.70;3.40;;;;;;;;;;5075777;28;20028;-71
2021/11/03 05:03:22;;;;;;;5.53;3.33;;;;;;;;;;5093891;28;20419;-69
2021/11/03 05:05:49;;;;;;;5.75;3.50;;;;;;;;;;5093940;28;20073;-69
2021/11/03 05:08:15;;;;;;;5.97;3.15;;;;;;;;;;5093868;28;20028;-69
2021/11/03 05:10:42;;;;;;;5.28;3.13;;;;;;;;;;5093780;28;20048;-68
2021/11/03 05:13:08;;;;;;;5.50;3.30;;;;;;;;;;5094065;28;20036;-69
2021/11/03 05:15:34;;;;;;;5.25;3.28;;;;;;;;;;5093671;28;20016;-69
2021/11/03 05:18:00;;;;;;;4.93;2.92;;;;;;;;;;5075224;28;20020;-69
2021/11/03 05:20:27;;;;;;;5.57;3.40;;;;;;;;;;5093780;28;20487;-69
2021/11/03 05:22:54;;;;;;;7.30;3.30;;;;;;;;;;5093724;28;20491;-70
2021/11/03 05:25:21;;;;;;;5.95;3.42;;;;;;;;;;5093499;28;20016;-71
2021/11/03 05:27:48;;;;;;;4.97;3.10;;;;;;;;;;5075009;28;20035;-71
2021/11/03 05:30:14;;;;;;;5.50;2.97;;;;;;;;;;5110383;27;20050;-71
2021/11/03 05:32:41;;;;;;;6.60;3.80;;;;;;;;;;5113651;28;20040;-70
2021/11/03 05:35:07;;;;;;;5.47;2.95;;;;;;;;;;5113563;28;20489;-70
2021/11/03 05:37:33;;;;;;;4.93;2.92;;;;;;;;;;5113507;28;20032;-73
2021/11/03 05:39:59;;;;;;;5.28;3.00;;;;;;;;;;5113401;28;20018;-72
2021/11/03 05:42:25;;;;;;;5.43;3.17;;;;;;;;;;5113482;28;20391;-72
2021/11/03 05:44:51;;;;;;;5.60;3.40;;;;;;;;;;5095244;28;20391;-72
2021/11/03 05:47:21;;;;;;;5.28;3.15;;;;;;;;;;5094558;28;20393;-72
2021/11/03 05:49:47;;;;;;;5.72;3.58;;;;;;;;;;5095192;28;20026;-72
2021/11/03 05:52:14;;;;;;;5.60;3.40;;;;;;;;;;5095051;28;20038;-72
2021/11/03 05:54:40;;;;;;;7.20;2.88;;;;;;;;;;5113651;28;20482;-72
2021/11/03 05:57:06;;;;;;;5.88;3.83;;;;;;;;;;5113184;28;20055;-73
2021/11/03 05:59:33;;;;;;;6.53;3.67;;;;;;;;;;5093237;28;20043;-73
2021/11/03 06:01:59;;;;;;;5.93;3.28;;;;;;;;;;5092607;28;20016;-73
2021/11/03 06:04:26;;;;;;;5.85;3.60;;;;;;;;;;5093137;28;20047;-72
2021/11/03 06:06:52;;;;;;;4.80;2.85;;;;;;;;;;5092786;28;20503;-71
2021/11/03 06:09:18;;;;;;;6.53;3.45;;;;;;;;;;5092623;28;20038;-71
2021/11/03 06:11:44;;;;;;;5.53;3.08;;;;;;;;;;5074216;28;20024;-69
2021/11/03 06:14:11;;;;;;;5.63;2.92;;;;;;;;;;5092630;28;20022;-70
2021/11/03 06:16:37;;;;;;;7.55;3.20;;;;;;;;;;5092687;28;20069;-71
2021/11/03 06:19:03;;;;;;;5.35;3.15;;;;;;;;;;5092577;28;20020;-71
2021/11/03 06:21:29;;;;;;;6.13;2.72;;;;;;;;;;5092975;28;20012;-71
2021/11/03 06:23:56;;;;;;;6.13;2.90;;;;;;;;;;5074060;28;20020;-71
2021/11/03 06:26:22;;;;;;;9.35;2.88;;;;;;;;;;5092294;28;20078;-72
2021/11/03 06:28:49;;;;;;;5.53;3.00;;;;;;;;;;5098262;28;20015;-71
2021/11/03 06:31:15;;;;;;;7.22;3.28;;;;;;;;;;5093727;28;20043;-71
2021/11/03 06:33:41;;;;;;;4.93;2.92;;;;;;;;;;5112593;28;20028;-72
2021/11/03 06:36:08;;;;;;;5.13;2.55;;;;;;;;;;5112422;28;20394;-71
2021/11/03 06:38:34;;;;;;;5.03;2.70;;;;;;;;;;5106785;28;20016;-71
2021/11/03 06:41:01;;;;;;;4.95;2.95;;;;;;;;;;5074209;28;20016;-71
2021/11/03 06:43:28;;;;;;;5.10;2.80;;;;;;;;;;5092070;28;20137;-73
2021/11/03 06:45:54;;;;;;;4.47;2.63;;;;;;;;;;5092197;28;20028;-73
2021/11/03 06:48:20;;;;;;;5.80;3.15;;;;;;;;;;5073849;28;20546;-71
2021/11/03 06:50:46;;;;;;;5.03;3.08;;;;;;;;;;5092073;28;20028;-72
2021/11/03 06:53:15;;;;;;;9.18;3.28;;;;;;;;;;5091861;28;20032;-71
2021/11/03 06:55:41;;;;;;;6.00;3.05;;;;;;;;;;5092512;28;20030;-71
2021/11/03 06:58:07;;;;;;;5.35;3.10;;;;;;;;;;5092025;28;20082;-70
2021/11/03 07:00:35;;;;;;;6.03;3.05;;;;;;;;;;5092298;28;20087;-72
2021/11/03 07:03:02;;;;;;;6.15;2.25;;;;;;;;;;5091776;28;20386;-74
2021/11/03 07:05:29;;;;;;;5.03;2.58;;;;;;;;;;5099637;28;20018;-72
2021/11/03 07:07:55;;;;;;;3.92;1.95;;;;;;;;;;5112064;28;20019;-73
2021/11/03 07:10:26;;;;;;;4.97;2.30;;;;;;;;;;5093884;28;20016;-71
2021/11/03 07:12:52;;;;;;;4.60;2.35;;;;;;;;;;5097095;28;20044;-73
2021/11/03 07:15:19;;;;;;;4.13;2.10;;;;;;;;;;5073550;28;20040;-70
2021/11/03 07:17:45;;;;;;;5.03;2.25;;;;;;;;;;5073492;28;20072;-72
2021/11/03 07:20:12;;;;;;;4.63;2.35;;;;;;;;;;5073462;28;20020;-74
2021/11/03 07:22:38;;;;;;;3.88;2.10;;;;;;;;;;5073417;28;20028;-74
2021/11/03 07:25:05;;;;;;;3.85;2.00;;;;;;;;;;5073527;28;20146;-73
2021/11/03 07:27:31;;;;;;;3.90;2.10;;;;;;;;;;5091671;28;20028;-73
2021/11/03 07:29:57;;;;;;;4.10;2.13;;;;;;;;;;5106684;28;20126;-73
2021/11/03 07:32:23;;;;;;;4.18;2.40;;;;;;;;;;5112013;28;20031;-73
2021/11/03 07:34:49;;;;;;;4.15;2.00;;;;;;;;;;5111778;28;20494;-70
2021/11/03 07:37:15;;;;;;;7.40;2.85;;;;;;;;;;5112118;28;20055;-72
2021/11/03 07:39:41;;;;;;;5.03;2.60;;;;;;;;;;5093692;28;20027;-72
2021/11/03 07:42:08;;;;;;;3.95;2.22;;;;;;;;;;5114550;28;20023;-70
2021/11/03 07:44:34;;;;;;;5.18;2.55;;;;;;;;;;5115883;28;20023;-70
2021/11/03 07:47:00;;;;;;;4.93;2.25;;;;;;;;;;5115215;28;20049;-73
2021/11/03 07:49:26;;;;;;;5.47;2.33;;;;;;;;;;5097583;28;20080;-74
2021/11/03 07:51:52;;;;;;;5.50;2.20;;;;;;;;;;5115704;28;20115;-69
2021/11/03 07:54:18;;;;;;;6.07;2.53;;;;;;;;;;5097460;28;20119;-70
2021/11/03 07:56:45;;;;;;;4.22;2.40;;;;;;;;;;5115669;28;20102;-72
2021/11/03 07:59:14;;;;;;;4.47;2.25;;;;;;;;;;5115430;28;20012;-72
2021/11/03 08:01:40;;;;;;;5.50;2.60;;;;;;;;;;5115413;28;20476;-73
2021/11/03 08:04:06;;;;;;;5.93;2.70;;;;;;;;;;5114474;28;20030;-70
2021/11/03 08:06:32;;;;;;;5.32;2.80;;;;;;;;;;5096902;28;20027;-70
2021/11/03 08:09:03;;;;;;;5.60;2.92;;;;;;;;;;5096988;28;20027;-69
2021/11/03 08:11:36;;;;;;;4.93;2.70;;;;;;;;;;5115044;28;20042;-73
2021/11/03 08:14:04;;;;;;;4.63;2.55;;;;;;;;;;5115380;28;20024;-70
2021/11/03 08:16:45;;;;;;;4.70;2.58;;;;;;;;;;5096902;28;20416;-73
2021/11/03 08:19:11;;;;;;;7.05;2.40;;;;;;;;;;5114177;28;20023;-71
2021/11/03 08:21:37;;;;;;;5.47;2.85;;;;;;;;;;5096744;28;20020;-70
2021/11/03 08:24:04;;;;;;;5.18;2.30;;;;;;;;;;5115112;28;20028;-70
2021/11/03 08:26:30;;;;;;;4.68;2.60;;;;;;;;;;5115063;28;20045;-70
2021/11/03 08:28:56;;;;;;;6.78;3.00;;;;;;;;;;5107303;28;20059;-72
2021/11/03 08:31:22;;;;;;;6.22;2.20;;;;;;;;;;5094343;28;20040;-72
2021/11/03 08:33:49;;;;;;;5.43;2.78;;;;;;;;;;5094607;28;20032;-72
2021/11/03 08:36:16;;;;;;;4.57;2.30;;;;;;;;;;5095219;28;20047;-71
2021/11/03 08:38:42;;;;;;;4.40;2.20;;;;;;;;;;5076400;28;20453;-72
2021/11/03 08:41:08;;;;;;;5.28;2.88;;;;;;;;;;5076150;28;20039;-71
2021/11/03 08:43:36;;;;;;;6.68;2.88;;;;;;;;;;5094009;28;20020;-74
2021/11/03 08:46:02;;;;;;;6.57;2.60;;;;;;;;;;5094288;28;20136;-72
2021/11/03 08:48:29;;;;;;;5.22;2.42;;;;;;;;;;5094094;28;20023;-71
2021/11/03 08:50:56;;;;;;;4.65;2.40;;;;;;;;;;5094054;28;20378;-68
2021/11/03 08:53:22;;;;;;;6.03;2.53;;;;;;;;;;5102714;28;20039;-73
2021/11/03 08:55:49;;;;;;;5.90;2.40;;;;;;;;;;5093987;28;20016;-70
2021/11/03 08:58:17;;;;;;;13.25;3.50;;;;;;;;;;5093970;28;20024;-70
2021/11/03 09:00:44;;;;;;;20.00;3.92;;;;;;;;;;5094038;28;20379;-71
2021/11/03 09:03:11;;;;;;;19.58;4.53;;;;;;;;;;5075566;28;20028;-73
2021/11/03 09:05:37;;;;;;;22.92;4.25;;;;;;;;;;5093927;28;20028;-72
2021/11/03 09:08:03;;;;;;;18.17;3.83;;;;;;;;;;5094002;28;20050;-70
2021/11/03 09:10:32;;;;;;;12.40;3.70;;;;;;;;;;5076294;28;20364;-72
2021/11/03 09:12:58;;;;;;;11.82;3.72;;;;;;;;;;5097808;28;20063;-72
2021/11/03 09:15:24;;;;;;;12.02;3.67;;;;;;;;;;5113335;28;20019;-72
2021/11/03 09:17:50;;;;;;;11.43;3.65;;;;;;;;;;5095072;28;20039;-72
2021/11/03 09:20:17;;;;;;;10.70;3.40;;;;;;;;;;5113938;28;20015;-71
2021/11/03 09:22:43;;;;;;;17.75;3.75;;;;;;;;;;5093375;28;20023;-71
2021/11/03 09:25:11;;;;;;;10.57;3.42;;;;;;;;;;5113582;28;20074;-71
2021/11/03 09:27:38;;;;;;;16.02;3.85;;;;;;;;;;5094431;28;20547;-71
2021/11/03 09:30:04;;;;;;;14.27;4.20;;;;;;;;;;5077937;28;20048;-70
2021/11/03 09:32:31;;;;;;;13.07;4.20;;;;;;;;;;5092972;28;20390;-71
2021/11/03 09:34:58;;;;;;;7.90;3.35;;;;;;;;;;5093100;28;20020;-71
2021/11/03 09:37:26;;;;;;;7.90;3.40;;;;;;;;;;5081533;28;20397;-70
2021/11/03 09:39:53;;;;;;;7.72;2.92;;;;;;;;;;5113636;28;20099;-72
2021/11/03 09:42:21;;;;;;;12.00;3.13;;;;;;;;;;5096324;28;20024;-71
2021/11/03 09:44:48;;;;;;;10.57;3.92;;;;;;;;;;5080737;28;20047;-71
2021/11/03 09:47:14;;;;;;;5.95;2.85;;;;;;;;;;5113037;28;20055;-72
2021/11/03 09:49:45;;;;;;;8.88;2.88;;;;;;;;;;5095000;28;20024;-70
2021/11/03 09:52:12;;;;;;;8.30;2.78;;;;;;;;;;5094779;28;20019;-72
2021/11/03 09:54:38;;;;;;;7.80;3.05;;;;;;;;;;5113226;28;20032;-72
2021/11/03 09:57:08;;;;;;;10.13;2.80;;;;;;;;;;5113325;28;20022;-72
2021/11/03 09:59:34;;;;;;;5.68;2.70;;;;;;;;;;5113142;28;20030;-73
2021/11/03 10:02:35;;;;;;;6.63;3.13;;;;;;;;;;5097114;28;20023;-72
2021/11/03 10:05:03;;;;;;;7.15;3.05;;;;;;;;;;5030093;28;20069;-70
2021/11/03 10:07:52;;;;;;;5.35;2.13;;;;;;;;;;5062906;28;20069;-71
2021/11/03 10:10:45;;;;;;;5.72;2.13;;;;;;;;;;5092601;28;20542;-71
2021/11/03 10:13:37;;;;;;;7.07;2.60;;;;;;;;;;5083650;28;20044;-70
2021/11/03 10:16:22;;;;;;;6.78;2.38;;;;;;;;;;5109127;28;20394;-70
2021/11/03 10:19:06;;;;;;;5.60;2.15;;;;;;;;;;5096358;28;20546;-72
2021/11/03 10:21:32;;;;;;;6.57;2.10;;;;;;;;;;5102358;28;20023;-70
2021/11/03 10:24:20;;;;;;;4.72;2.15;;;;;;;;;;5112872;28;20026;-71
2021/11/03 10:26:52;;;;;;;5.53;2.22;;;;;;;;;;5112392;28;20023;-70
2021/11/03 10:29:21;;;;;;;4.25;1.90;;;;;;;;;;5094668;28;20352;-71
2021/11/03 10:31:50;;;;;;;6.28;2.55;;;;;;;;;;5112587;28;20142;-71
2021/11/03 10:34:25;;;;;;;6.55;2.22;;;;;;;;;;5112574;28;20556;-71
2021/11/03 10:37:01;;;;;;;5.63;2.22;;;;;;;;;;5112861;28;20094;-73
2021/11/03 10:39:28;;;;;;;4.47;1.77;;;;;;;;;;5102518;28;20039;-73
2021/11/03 10:42:00;;;;;;;4.88;2.10;;;;;;;;;;5092095;28;20028;-71
2021/11/03 10:44:28;;;;;;;6.40;2.20;;;;;;;;;;5074061;28;20443;-71
2021/11/03 10:46:56;;;;;;;5.43;2.20;;;;;;;;;;5074237;28;20417;-70
2021/11/03 10:49:25;;;;;;;3.30;1.70;;;;;;;;;;5092234;28;20028;-71
2021/11/03 10:52:12;;;;;;;4.53;2.10;;;;;;;;;;5092086;28;20477;-70
2021/11/03 10:54:44;;;;;;;6.07;1.92;;;;;;;;;;5092140;28;20028;-72
2021/11/03 10:57:18;;;;;;;3.88;1.73;;;;;;;;;;5092123;28;20020;-70
2021/11/03 10:59:50;;;;;;;5.07;2.00;;;;;;;;;;5091845;28;20476;-71
2021/11/03 11:02:24;;;;;;;4.75;1.90;;;;;;;;;;5092129;28;20434;-71
2021/11/03 11:04:50;;;;;;;5.65;2.17;;;;;;;;;;5092210;28;20522;-70
2021/11/03 11:07:25;;;;;;;8.30;1.70;;;;;;;;;;5092245;28;20509;-70
2021/11/03 11:09:57;;;;;;;6.25;2.15;;;;;;;;;;5092000;28;20047;-71
2021/11/03 11:12:25;;;;;;;3.65;1.70;;;;;;;;;;5091906;28;20035;-69
2021/11/03 11:14:54;;;;;;;4.93;1.45;;;;;;;;;;5091977;28;20085;-71
2021/11/03 11:17:38;;;;;;;3.92;1.90;;;;;;;;;;5098939;28;20051;-70
2021/11/03 11:20:07;;;;;;;5.78;1.65;;;;;;;;;;5098260;28;20482;-71
2021/11/03 11:22:33;;;;;;;4.25;1.42;;;;;;;;;;5116270;28;20059;-70
2021/11/03 11:25:05;;;;;;;5.40;1.83;;;;;;;;;;5116304;28;20015;-70
2021/11/03 11:27:31;;;;;;;;;;;;;;;;;;5116670;28;20037;-70
2021/11/03 11:30:11;;;;;;;3.55;1.63;;;;;;;;;;5116279;28;20124;-70
2021/11/03 11:32:49;;;;;;;4.50;1.92;;;;;;;;;;5116045;28;20039;-71
2021/11/03 11:35:30;;;;;;;4.22;1.60;;;;;;;;;;5097847;28;20416;-71
2021/11/03 11:37:56;;;;;;;3.58;1.42;;;;;;;;;;5097643;28;20070;-71
2021/11/03 11:40:35;;;;;;;3.40;1.60;;;;;;;;;;5097812;28;20024;-73
2021/11/03 11:43:14;;;;;;;4.38;1.52;;;;;;;;;;5097786;28;20462;-70
2021/11/03 11:45:41;;;;;;;3.20;1.30;;;;;;;;;;5115922;28;20020;-71
2021/11/03 11:48:17;;;;;;;4.38;1.80;;;;;;;;;;5115864;28;20015;-71
2021/11/03 11:50:48;;;;;;;2.40;1.20;;;;;;;;;;5115640;28;20510;-71
2021/11/03 11:53:27;;;;;;;3.80;1.42;;;;;;;;;;5115700;28;20040;-71
2021/11/03 11:56:12;;;;;;;4.40;1.55;;;;;;;;;;5097501;28;20027;-72
2021/11/03 11:58:45;;;;;;;2.85;1.23;;;;;;;;;;5097421;28;20200;-71
2021/11/03 12:01:14;;;;;;;2.75;1.38;;;;;;;;;;5113810;28;20023;-71
2021/11/03 12:04:02;;;;;;;2.83;1.30;;;;;;;;;;5115193;28;20030;-70
2021/11/03 12:06:37;;;;;;;3.05;1.33;;;;;;;;;;5115456;28;20496;-71
2021/11/03 12:09:23;;;;;;;3.53;1.30;;;;;;;;;;5115649;28;20131;-71
2021/11/03 12:11:52;;;;;;;3.35;1.55;;;;;;;;;;5086530;28;20040;-70
2021/11/03 12:14:31;;;;;;;3.03;1.42;;;;;;;;;;5115510;28;20081;-72
2021/11/03 12:17:00;;;;;;;3.50;1.50;;;;;;;;;;5115130;28;20030;-70
2021/11/03 12:19:38;;;;;;;2.67;1.38;;;;;;;;;;5114992;28;20096;-70
2021/11/03 12:22:05;;;;;;;3.10;1.25;;;;;;;;;;5115543;28;20019;-70
2021/11/03 12:24:33;;;;;;;5.07;1.42;;;;;;;;;;5114920;28;20424;-70
2021/11/03 12:27:19;;;;;;;77.65;5.47;;;;;;;;;;5114447;28;20388;-69
2021/11/03 12:29:54;;;;;;;102.53;5.05;;;;;;;;;;5078891;28;20074;-70
2021/11/03 12:32:31;;;;;;;33.72;2.83;;;;;;;;;;5096770;28;20032;-69
2021/11/03 12:35:02;;;;;;;23.80;3.35;;;;;;;;;;5115394;28;20016;-69
2021/11/03 12:37:30;;;;;;;28.30;3.78;;;;;;;;;;5114814;28;20024;-69
2021/11/03 12:39:58;;;;;;;56.80;4.32;;;;;;;;;;5114797;28;20023;-69
2021/11/03 12:42:33;;;;;;;12.98;2.38;;;;;;;;;;5096522;28;20023;-71
2021/11/03 12:45:08;;;;;;;13.15;2.92;;;;;;;;;;5114983;28;20359;-73
2021/11/03 12:47:44;;;;;;;16.35;2.33;;;;;;;;;;5114928;28;20024;-72
2021/11/03 12:50:17;;;;;;;29.40;3.03;;;;;;;;;;5114780;28;20035;-70
2021/11/03 12:52:48;;;;;;;20.35;2.88;;;;;;;;;;5114845;28;20070;-71
2021/11/03 12:55:23;;;;;;;12.90;1.95;;;;;;;;;;5096588;28;20055;-70
2021/11/03 12:57:49;;;;;;;16.63;3.20;;;;;;;;;;5096401;28;20020;-71
2021/11/03 13:00:17;;;;;;;13.95;2.40;;;;;;;;;;5095667;28;20073;-71
2021/11/03 13:02:46;;;;;;;14.15;2.28;;;;;;;;;;5113888;28;20019;-72
2021/11/03 13:05:14;;;;;;;16.23;2.58;;;;;;;;;;5113950;28;20051;-70
2021/11/03 13:07:41;;;;;;;10.27;2.20;;;;;;;;;;5114064;28;20026;-71
2021/11/03 13:10:17;;;;;;;11.30;2.65;;;;;;;;;;5095819;28;20473;-74
2021/11/03 13:12:55;;;;;;;7.00;2.15;;;;;;;;;;5113464;28;20039;-71
2021/11/03 13:15:23;;;;;;;15.98;2.42;;;;;;;;;;5113415;28;20020;-71
2021/11/03 13:17:51;;;;;;;11.82;2.00;;;;;;;;;;5112926;28;20540;-71
2021/11/03 13:20:31;;;;;;;7.97;2.15;;;;;;;;;;5113575;28;20027;-71
2021/11/03 13:22:59;;;;;;;7.03;2.20;;;;;;;;;;5113981;28;20023;-73
2021/11/03 13:25:27;;;;;;;12.48;2.65;;;;;;;;;;5095797;28;20088;-73
2021/11/03 13:27:53;;;;;;;12.23;1.80;;;;;;;;;;5114265;28;20042;-71
2021/11/03 13:30:28;;;;;;;5.18;1.55;;;;;;;;;;5113974;28;20086;-72
2021/11/03 13:32:58;;;;;;;9.60;2.35;;;;;;;;;;5113862;28;20516;-71
2021/11/03 13:35:26;;;;;;;7.15;2.15;;;;;;;;;;5113822;28;20023;-68
2021/11/03 13:37:57;;;;;;;12.15;2.33;;;;;;;;;;5113929;28;20088;-70
2021/11/03 13:40:36;;;;;;;14.50;2.92;;;;;;;;;;5113645;28;20475;-69
2021/11/03 13:43:02;;;;;;;6.75;2.65;;;;;;;;;;5113821;28;20089;-71
2021/11/03 13:45:28;;;;;;;9.38;2.22;;;;;;;;;;5114038;28;20023;-70
2021/11/03 13:48:04;;;;;;;10.18;2.63;;;;;;;;;;5095459;28;20024;-70
2021/11/03 13:50:31;;;;;;;7.95;2.47;;;;;;;;;;5095516;28;20031;-71
2021/11/03 13:53:00;;;;;;;10.85;2.83;;;;;;;;;;5113376;28;20158;-72
2021/11/03 13:55:32;;;;;;;5.65;2.58;;;;;;;;;;5113685;28;20084;-72
2021/11/03 13:57:58;;;;;;;5.88;2.45;;;;;;;;;;5113628;28;20023;-71
2021/11/03 14:00:28;;;;;;;8.07;2.40;;;;;;;;;;5112909;28;20059;-71
2021/11/03 14:02:55;;;;;;;5.60;2.58;;;;;;;;;;5113477;28;20053;-71
2021/11/03 14:05:29;;;;;;;8.90;2.60;;;;;;;;;;5113468;28;20020;-71
2021/11/03 14:07:55;;;;;;;7.22;2.90;;;;;;;;;;5113490;28;20023;-72
2021/11/03 14:10:21;;;;;;;9.85;3.10;;;;;;;;;;5113367;28;20019;-69
2021/11/03 14:12:47;;;;;;;6.95;2.17;;;;;;;;;;5113216;28;20459;-69
2021/11/03 14:15:17;;;;;;;9.27;2.75;;;;;;;;;;5113533;28;20069;-71
2021/11/03 14:17:45;;;;;;;8.13;2.38;;;;;;;;;;5113258;28;20102;-70
2021/11/03 14:20:30;;;;;;;9.68;2.88;;;;;;;;;;5113176;28;20069;-71
2021/11/03 14:22:56;;;;;;;13.80;3.10;;;;;;;;;;5113086;28;20027;-70
2021/11/03 14:25:24;;;;;;;7.50;2.75;;;;;;;;;;5113021;28;20024;-71
2021/11/03 14:27:51;;;;;;;7.00;2.78;;;;;;;;;;5112922;28;20026;-71
2021/11/03 14:30:17;;;;;;;7.13;2.55;;;;;;;;;;5094652;28;20048;-70
2021/11/03 14:32:45;;;;;;;8.70;3.10;;;;;;;;;;5094618;28;20550;-71
2021/11/03 14:35:17;;;;;;;5.45;2.35;;;;;;;;;;5112949;28;20024;-73
2021/11/03 14:37:43;;;;;;;5.57;2.92;;;;;;;;;;5112987;28;20012;-70
2021/11/03 14:40:15;;;;;;;5.82;2.40;;;;;;;;;;5094275;28;20409;-71
2021/11/03 14:42:42;;;;;;;7.30;2.58;;;;;;;;;;5112316;28;20098;-70
2021/11/03 14:45:08;;;;;;;6.30;2.60;;;;;;;;;;5094592;28;20431;-72
2021/11/03 14:47:34;;;;;;;9.98;3.22;;;;;;;;;;5094143;28;20023;-72
2021/11/03 14:50:02;;;;;;;9.93;2.58;;;;;;;;;;5112240;28;20027;-72